Alford, Indiana
Current Conditions -  °F | °C
As of 6:55 PM on Wednesday 22 Oct 2014 (Local Time) from KDCY Reporting Station
Clear Clear  
Wind Chill:   Ceiling: Unl
Heat Index:   Visibility: 10mi
Dew Point:   Wind: 5mph
Humidity: 82%   Direction: 130°SE
Pressure: 30.24"   Gusts: NA
Location:  38.4723°N, 87.3105°W
Report Text: KDCY 222355Z AUTO 13004KT 10SM CLR 09/06 A3024 RMK AO2 T00890059 10160 20089
Loading
Personal Weather Stations






























Interactive Weather Map New forecast layout! Learn more

10-Day Weather Forecast

Advertisements
Track Severe Weather on mobile